< < Back
Terminal Aerodrome Forecast


Current Version              Previous Versions:   1  2  3  4  5  6  7  8  9  

Terminal Aerodrome Forecast

352
FTUS42 KFFC 272300
TAFMCN
TAF
KMCN 272324Z 2800/2824 27006KT P6SM FEW070
     FM281300 28010KT P6SM SCT040
     FM281600 28010G17KT P6SM VCSH BKN050 PROB30 2818/2823 6SM TSRA
      BKN040CB=



Latest METAR

662
SAUS80 KWBC 280400 RRA
MTRMCN
METAR KMCN 280353Z AUTO 24004KT 10SM CLR 27/23 A2995 RMK AO2 SLP136
T02720233 TSNO


USA.gov is the U.S. government's official web portal to all federal, state and local government web resources and services.